• Join FlightAware (Why Join?)
  • Login
  • US Flag 
10:19AM EDT


 

Airport Tracker/Info


-or-


 

Live Flight TrackerFlight Track Log ✈ UAL139 ✈ 27-Oct-2013 ✈ KDEN - RJAA / NRT

Flight Track Log - Related Links

Times and Time Zones

All times are in EDT time to prevent confusion due to time zone crossing. See the UAL139 flight status page for this flight to view local times or setup timezone preferences in your user account.

Time Position Orientation Groundspeed Altitude Reporting Facility
EDT Latitude Longitude Course Direction KTS MPH feet Rate Location/Type
03:37PM 39.8640 -104.6960 270° West 134 154 5,300  Level FlightAware
03:37PM 39.8800 -104.6960 360° North 193 222 5,500 1,620 Climbing FlightAware
03:37PM 39.9120 -104.6950 North 197 227 6,800 1,500 Climbing FlightAware
03:38PM 39.9660 -104.7100 348° North 263 303 7,700 1,620 Climbing FlightAware
03:39PM 40.0270 -104.7270 348° North 285 328 9,500 1,680 Climbing FlightAware
03:40PM 40.0680 -104.7420 344° North 290 334 10,000 720 Climbing FlightAware
03:40PM 40.1100 -104.7610 341° North 326 375 10,300 1,500 Climbing FlightAware
03:41PM 40.1600 -104.7840 341° North 343 395 11,600 2,520 Climbing FlightAware
03:41PM 40.2140 -104.8090 341° North 354 407 13,300 2,640 Climbing FlightAware
03:42PM 40.2650 -104.8330 340° North 362 417 14,600 2,400 Climbing FlightAware
03:43PM 40.3290 -104.8630 340° North 372 428 16,200 2,280 Climbing FlightAware
03:43PM 40.3750 -104.8840 341° North 381 438 17,200 2,160 Climbing FlightAware
03:44PM 40.4410 -104.9150 340° North 388 447 18,700 2,280 Climbing FlightAware
03:44PM 40.5150 -104.9500 340° North 394 453 20,400 2,340 Climbing FlightAware
03:45PM 40.5670 -104.9740 341° North 397 457 21,600 2,220 Climbing FlightAware
03:46PM 40.6370 -105.0080 340° North 404 465 23,000 1,860 Climbing FlightAware
03:46PM 40.7070 -105.0410 340° North 410 472 24,100 1,620 Climbing FlightAware
03:47PM 40.7720 -105.0790 336° Northwest 410 472 25,100 1,500 Climbing FlightAware
03:47PM 40.8190 -105.1290 321° Northwest 406 467 25,900 1,440 Climbing FlightAware
03:48PM 40.8850 -105.2030 320° Northwest 412 474 27,000 1,440 Climbing FlightAware
03:49PM 40.9280 -105.2520 319° Northwest 414 476 27,700 1,320 Climbing FlightAware
03:49PM 40.9730 -105.3030 319° Northwest 421 484 28,400 1,380 Climbing FlightAware
03:50PM 41.0270 -105.3640 320° Northwest 423 487 29,300 1,380 Climbing FlightAware
03:50PM 41.0830 -105.4290 319° Northwest 429 494 30,100 1,260 Climbing FlightAware
03:51PM 41.1250 -105.4770 319° Northwest 435 501 30,700 1,080 Climbing FlightAware
03:52PM 41.1880 -105.5490 319° Northwest 447 514 31,400 1,020 Climbing FlightAware
03:52PM 41.2420 -105.6110 319° Northwest 455 524 32,000 420 Climbing FlightAware
03:53PM 41.3070 -105.6850 319° Northwest 454 522 32,000  Level FlightAware
03:54PM 41.3700 -105.7710 314° West 444 511 32,000  Level FlightAware
03:54PM 41.4280 -105.8620 310° West 447 514 32,000 600 Level FlightAware
03:55PM 41.5100 -105.9900 311° West 448 516 33,100 780 Climbing FlightAware
03:56PM 41.5540 -106.0610 310° West 455 524 33,300 480 Climbing FlightAware
03:57PM 41.6330 -106.1850 310° West 466 536 33,900 840 Climbing FlightAware
03:58PM 41.7200 -106.3230 310° West 471 542 35,000 1,080 Climbing FlightAware
03:58PM 41.7740 -106.4070 311° West 469 540 35,700 900 Climbing FlightAware
03:59PM 41.8130 -106.4700 310° West 471 542 36,000 720 Climbing FlightAware
03:59PM 41.8520 -106.5330 310° West 472 543 36,400 480 Climbing FlightAware
04:00PM 41.9050 -106.6180 310° West 471 542 36,600 120 Climbing FlightAware
04:00PM 41.9330 -106.6640 309° West 471 542 36,600  Level FlightAware
04:01PM 41.9910 -106.7550 311° West 471 542 36,600  Level FlightAware
04:02PM 42.0350 -106.8260 310° West 471 542 36,600  Level FlightAware
04:02PM 42.0760 -106.8930 310° West 471 542 36,600  Level FlightAware
04:03PM 42.1190 -106.9620 310° West 471 542 36,600  Level FlightAware
04:04PM 42.1620 -107.0310 310° West 471 542 36,600  Level FlightAware
04:04PM 42.2190 -107.1230 310° West 471 542 36,600  Level FlightAware
04:05PM 42.2600 -107.1880 310° West 471 542 36,600  Level FlightAware
04:06PM 42.3020 -107.2570 309° West 471 542 36,600  Level FlightAware
04:07PM 42.3740 -107.3720 310° West 471 542 36,600  Level FlightAware
04:07PM 42.4200 -107.4470 310° West 471 542 36,600  Level FlightAware
04:08PM 42.4630 -107.5160 310° West 471 542 36,600  Level FlightAware
04:08PM 42.4920 -107.5620 311° West 471 542 36,600  Level FlightAware
04:09PM 42.5360 -107.6340 310° West 471 542 36,600  Level FlightAware
04:09PM 42.5760 -107.6990 310° West 471 542 36,600 960 Level FlightAware
04:10PM 42.7553 -108.0158 310° West 475 547 38,000 720 Climbing Salt Lake Center
04:11PM 42.8322 -108.1478 309° West 472 543 38,000  Level Salt Lake Center
04:12PM 42.9233 -108.3022 309° West 470 541 38,000  Level Salt Lake Center
04:13PM 43.0006 -108.4375 308° West 468 539 38,000  Level Salt Lake Center
04:14PM 43.0836 -108.5756 310° West 469 540 38,000  Level Salt Lake Center
04:15PM 43.1642 -108.7169 308° West 470 541 38,000  Level Salt Lake Center
04:16PM 43.2442 -108.8547 309° West 466 536 38,000  Level Salt Lake Center
04:18PM 43.3247 -108.9956 308° West 468 539 38,000  Level Salt Lake Center
04:19PM 43.4053 -109.1333 309° West 463 533 38,000  Level Salt Lake Center
04:20PM 43.5006 -109.3006 308° West 462 532 38,000  Level Salt Lake Center
04:21PM 43.5806 -109.4403 308° West 463 533 38,000  Level Salt Lake Center
04:22PM 43.6600 -109.5836 307° West 464 534 38,000  Level Salt Lake Center
04:23PM 43.7353 -109.7169 308° West 461 531 38,000  Level Salt Lake Center
04:24PM 43.8236 -109.8728 308° West 459 528 38,000  Level Salt Lake Center
04:29PM 44.2370 -110.6220 308° West 464 534 38,000  Level FlightAware
04:30PM 44.3170 -110.7710 307° West 469 540 38,000  Level FlightAware
04:31PM 44.3940 -110.9130 307° West 470 541 38,000  Level FlightAware
04:32PM 44.4400 -110.9970 308° West 468 539 38,000  Level FlightAware
04:32PM 44.4920 -111.0960 306° West 470 541 38,000  Level FlightAware
04:33PM 44.5370 -111.1810 307° West 468 539 38,000  Level FlightAware
04:34PM 44.5970 -111.2920 307° West 469 540 38,000  Level FlightAware
04:34PM 44.6460 -111.3850 307° West 467 537 38,000  Level FlightAware
04:35PM 44.6940 -111.4770 306° West 469 540 38,000  Level FlightAware
04:35PM 44.7390 -111.5620 307° West 470 541 38,000  Level FlightAware
04:36PM 44.7830 -111.6460 306° West 469 540 38,000  Level FlightAware
04:36PM 44.8220 -111.7190 307° West 470 541 38,000  Level FlightAware
04:37PM 44.8640 -111.8000 306° West 468 539 38,000  Level FlightAware
04:38PM 44.9030 -111.8750 306° West 470 541 38,000  Level FlightAware
04:39PM 44.9820 -112.0280 306° West 473 544 38,000  Level FlightAware
04:39PM 45.0200 -112.1010 306° West 473 544 38,000  Level FlightAware
04:40PM 45.0780 -112.2130 306° West 471 542 38,000  Level FlightAware
04:40PM 45.0950 -112.2470 305° West 471 542 38,000  Level FlightAware
04:41PM 45.1620 -112.3780 306° West 472 543 38,000  Level FlightAware
04:42PM 45.2440 -112.5380 306° West 469 540 38,000  Level FlightAware
04:43PM 45.3260 -112.7020 305° West 469 540 38,000  Level FlightAware
04:44PM 45.3680 -112.7880 305° West 471 542 38,000  Level FlightAware
04:44PM 45.4020 -112.8570 305° West 471 542 38,000  Level FlightAware
04:45PM 45.4400 -112.9380 304° West 471 542 38,000  Level FlightAware
04:45PM 45.5030 -113.0630 306° West 466 536 38,000  Level FlightAware
04:46PM 45.5510 -113.1600 305° West 465 535 38,000  Level FlightAware
04:47PM 45.6070 -113.2760 305° West 463 533 38,000  Level FlightAware
04:47PM 45.6470 -113.3580 305° West 468 539 38,000  Level FlightAware
04:48PM 45.6920 -113.4510 305° West 467 537 38,000  Level FlightAware
04:49PM 45.7460 -113.5620 305° West 470 541 38,000  Level FlightAware
04:49PM 45.7860 -113.6450 305° West 469 540 38,000  Level FlightAware
04:50PM 45.8390 -113.7570 304° West 467 537 38,000  Level FlightAware
04:51PM 45.8880 -113.8610 304° West 465 535 38,000  Level FlightAware
04:51PM 45.9260 -113.9390 305° West 468 539 38,000  Level FlightAware
04:52PM 45.9790 -114.0540 304° West 468 539 38,000  Level FlightAware
04:53PM 46.0160 -114.1330 304° West 468 539 38,000  Level FlightAware
04:53PM 46.0660 -114.2380 304° West 468 539 38,000  Level FlightAware
04:54PM 46.1040 -114.3200 304° West 468 539 38,000  Level FlightAware
04:55PM 46.1310 -114.3770 304° West 468 539 38,000  Level FlightAware
04:55PM 46.1810 -114.4850 304° West 468 539 38,000  Level FlightAware
04:57PM 46.2540 -114.6410 304° West 468 539 38,000  Level FlightAware
04:57PM 46.2910 -114.7210 304° West 468 539 38,000  Level FlightAware
04:58PM 46.3290 -114.8030 304° West 468 539 38,000  Level FlightAware
04:59PM 46.3910 -114.9350 304° West 468 539 38,000  Level FlightAware
04:59PM 46.4290 -115.0170 304° West 468 539 38,000  Level FlightAware
05:00PM 46.4670 -115.0990 304° West 468 539 38,000  Level FlightAware
05:01PM 46.5040 -115.1790 304° West 468 539 38,000  Level FlightAware
05:01PM 46.5420 -115.2610 304° West 468 539 38,000  Level FlightAware
05:02PM 46.6208 -115.6164 304° West 469 540 38,000  Level Salt Lake Center
05:03PM 46.6775 -115.7675 299° West 467 537 38,000 -60 Level Seattle Center
05:04PM 46.7383 -115.9336 298° West 465 535 37,900 -60 Descending Seattle Center
05:05PM 46.8006 -116.1008 299° West 467 537 37,900  Level Seattle Center
05:06PM 46.8625 -116.2664 299° West 467 537 38,000  Climbing Seattle Center
05:07PM 46.9242 -116.4372 298° West 473 544 37,900  Descending Seattle Center
05:08PM 46.9856 -116.6081 298° West 474 545 38,000  Climbing Seattle Center
05:09PM 47.0475 -116.7806 298° West 477 549 38,000  Level Seattle Center
05:10PM 47.1103 -116.9519 298° West 476 548 38,000 -60 Level Seattle Center
05:11PM 47.1728 -117.1267 298° West 479 551 37,900  Descending Seattle Center
05:16PM 47.5000 -118.0650 298° West 488 562 38,000  Climbing FlightAware
05:16PM 47.5270 -118.1440 297° West 486 559 38,000  Level FlightAware
05:17PM 47.5680 -118.2630 297° West 486 559 38,000  Level FlightAware
05:18PM 47.6150 -118.4020 297° West 483 556 38,000  Level FlightAware
05:19PM 47.6620 -118.5430 296° West 481 554 38,000  Level FlightAware
05:19PM 47.6970 -118.6460 297° West 481 554 38,000  Level FlightAware
05:20PM 47.7560 -118.8240 296° West 483 556 38,000  Level FlightAware
05:21PM 47.7930 -118.9350 296° West 482 555 38,000  Level FlightAware
05:22PM 47.8424 -119.0840 296° West 481 554 38,000  Level FlightAware ADS-B
05:22PM 47.8723 -119.1750 296° West 481 554 38,000  Level FlightAware ADS-B
05:23PM 47.9069 -119.2810 296° West 481 554 38,000  Level FlightAware ADS-B
05:23PM 47.9366 -119.3720 296° West 479 551 38,000  Level FlightAware ADS-B
05:24PM 47.9683 -119.4690 296° West 476 548 38,000  Level FlightAware ADS-B
05:24PM 47.9974 -119.5590 296° West 475 547 38,000  Level FlightAware ADS-B
05:25PM 48.0258 -119.6480 296° West 474 545 38,000  Level FlightAware ADS-B
05:25PM 48.0543 -119.7360 296° West 474 545 38,000  Level FlightAware ADS-B
05:26PM 48.0832 -119.8260 296° West 475 547 38,000  Level FlightAware ADS-B
05:26PM 48.1117 -119.9160 295° West 477 549 38,000  Level FlightAware ADS-B
05:27PM 48.1402 -120.0050 296° West 474 545 38,000  Level FlightAware ADS-B
05:27PM 48.1684 -120.0940 295° West 475 547 38,000  Level FlightAware ADS-B
05:27PM 48.1785 -120.1260 295° West 472 543 38,000  Level FlightAware ADS-B (CYWH)
05:28PM 48.1965 -120.1830 295° West 475 547 38,000  Level FlightAware ADS-B
05:28PM 48.2247 -120.2730 295° West 474 545 38,000  Level FlightAware ADS-B
05:28PM 48.2275 -120.2817 295° West 471 542 38,000  Level FlightAware ADS-B (CYWH)
05:29PM 48.2528 -120.3620 295° West 475 547 38,000  Level FlightAware ADS-B
05:29PM 48.2562 -120.3732 294° West 472 543 38,000  Level FlightAware ADS-B (CYWH)
05:29PM 48.2811 -120.4530 295° West 476 548 38,000  Level FlightAware ADS-B
05:30PM 48.2945 -120.4960 295° West 475 547 38,000  Level FlightAware ADS-B (CYWH)
05:30PM 48.3121 -120.5530 295° West 476 548 38,000  Level FlightAware ADS-B
05:30PM 48.3236 -120.5900 295° West 472 543 38,000  Level FlightAware ADS-B (CYWH)
05:30PM 48.3415 -120.6470 295° West 476 548 38,000  Level FlightAware ADS-B
05:31PM 48.3675 -120.7311 295° West 473 544 38,000  Level FlightAware ADS-B (CYWH)
05:31PM 48.3695 -120.7380 294° West 476 548 38,000  Level FlightAware ADS-B
05:31PM 48.3944 -120.8194 295° West 472 543 38,000  Level FlightAware ADS-B (CYWH)
05:31PM 48.3972 -120.8280 296° West 472 543 38,000  Level FlightAware ADS-B
05:32PM 48.4249 -120.9180 295° West 475 547 38,000  Level FlightAware ADS-B
05:32PM 48.4254 -120.9202 289° West 474 545 38,000  Level FlightAware ADS-B
05:32PM 48.4526 -121.0090 295° West 470 541 38,000  Level FlightAware ADS-B
05:32PM 48.4542 -121.0143 295° West 470 541 38,000  Level FlightAware ADS-B
05:33PM 48.4783 -121.0934 295° West 465 535 38,000  Level FlightAware ADS-B
05:33PM 48.4818 -121.1050 295° West 465 535 38,000  Level FlightAware ADS-B
05:33PM 48.5071 -121.1886 295° West 464 534 38,000  Level FlightAware ADS-B
05:33PM 48.5088 -121.1940 296° West 464 534 38,000  Level FlightAware ADS-B
05:34PM 48.5299 -121.2642 294° West 462 532 38,000  Level FlightAware ADS-B
05:34PM 48.5389 -121.2940 294° West 461 531 38,000  Level FlightAware ADS-B
05:34PM 48.5499 -121.3305 294° West 457 526 38,000  Level FlightAware ADS-B (CYCD)
05:35PM 48.5658 -121.3830 295° West 450 518 38,000  Level FlightAware ADS-B
05:35PM 48.5760 -121.4174 294° West 445 512 38,000  Level FlightAware ADS-B (CYWH)
05:35PM 48.5916 -121.4690 295° West 449 517 38,000  Level FlightAware ADS-B
05:35PM 48.5923 -121.4713 295° West 446 513 38,000  Level FlightAware ADS-B (CYWH)
05:35PM 48.6011 -121.5004 294° West 448 516 38,000  Level FlightAware ADS-B (CYWH)
05:35PM 48.6100 -121.5303 294° West 451 519 38,000  Level FlightAware ADS-B (CYWH)
05:36PM 48.6174 -121.5550 295° West 456 525 38,000  Level FlightAware ADS-B
05:36PM 48.6389 -121.6273 294° West 453 521 38,000  Level FlightAware ADS-B (CYWH)
05:36PM 48.6435 -121.6430 294° West 455 524 38,000  Level FlightAware ADS-B
05:36PM 48.6640 -121.7125 294° West 451 519 38,000  Level FlightAware ADS-B (CYWH)
05:37PM 48.6695 -121.7310 294° West 454 522 38,000  Level FlightAware ADS-B
05:37PM 48.6955 -121.8190 294° West 451 519 38,000  Level FlightAware ADS-B
05:38PM 48.7209 -121.9050 294° West 451 519 38,000  Level FlightAware ADS-B
05:38PM 48.7380 -121.9634 294° West 449 517 38,000  Level FlightAware ADS-B
05:38PM 48.7467 -121.9930 294° West 450 518 38,000  Level FlightAware ADS-B
05:38PM 48.7664 -122.0602 294° West 448 516 38,000  Level FlightAware ADS-B (CYWH)
05:39PM 48.7718 -122.0790 293° West 447 514 38,000  Level FlightAware ADS-B
05:39PM 48.7920 -122.1482 294° West 446 513 38,000  Level FlightAware ADS-B
05:39PM 48.7966 -122.1640 294° West 445 512 38,000  Level FlightAware ADS-B
05:39PM 48.8162 -122.2319 294° West 445 512 38,000  Level FlightAware ADS-B
05:40PM 48.8220 -122.2520 294° West 445 512 38,000  Level FlightAware ADS-B
05:40PM 48.8428 -122.3237 294° West 447 514 38,000  Level FlightAware ADS-B
05:40PM 48.8469 -122.3380 294° West 446 513 38,000  Level FlightAware ADS-B
05:40PM 48.8677 -122.4098 294° West 449 517 38,000  Level FlightAware ADS-B
05:41PM 48.8718 -122.4240 294° West 449 517 38,000  Level FlightAware ADS-B
05:41PM 48.8924 -122.4957 294° West 448 516 38,000  Level FlightAware ADS-B
05:41PM 48.8970 -122.5120 293° West 447 514 38,000  Level FlightAware ADS-B
05:42PM 48.9190 -122.5888 294° West 441 507 38,000  Level FlightAware ADS-B
05:42PM 48.9317 -122.6330 294° West 443 510 38,000  Level FlightAware ADS-B
05:42PM 48.9522 -122.7050 293° West 436 502 38,000  Level FlightAware ADS-B (CYWH)
05:42PM 48.9559 -122.7180 294° West 439 505 38,000  Level FlightAware ADS-B
05:42PM 48.9648 -122.7496 293° West 435 501 38,000  Level FlightAware ADS-B (CYCD)
05:43PM 48.9803 -122.8040 293° West 436 502 38,000  Level FlightAware ADS-B
05:43PM 48.9874 -122.8295 293° West 435 501 38,000  Level FlightAware ADS-B
05:43PM 48.9972 -122.8642 293° West 431 496 38,000  Level FlightAware ADS-B (CYCD)
05:43PM 49.0014 -122.8788 293° West 434 499 38,000  Level FlightAware ADS-B
05:44PM 49.0231 -122.9556 293° West 432 497 38,000  Level FlightAware ADS-B (CYCD)
05:44PM 49.0281 -122.9740 293° West 434 499 38,000  Level FlightAware ADS-B
05:44PM 49.0388 -123.0123 293° West 430 495 38,000  Level FlightAware ADS-B (CYCD)
05:44PM 49.0468 -123.0407 293° West 430 495 38,000  Level FlightAware ADS-B (CYCD)
05:44PM 49.0518 -123.0590 293° West 433 498 38,000  Level FlightAware ADS-B
05:45PM 49.0756 -123.1430 293° West 437 503 38,000  Level FlightAware ADS-B
05:45PM 49.1003 -123.2290 294° West 436 502 38,000  Level FlightAware ADS-B
05:46PM 49.1251 -123.3140 294° West 432 497 38,000  Level FlightAware ADS-B
05:46PM 49.1263 -123.3182 293° West 432 497 38,000  Level FlightAware ADS-B (CYWH)
05:46PM 49.1495 -123.3980 294° West 432 497 38,000  Level FlightAware ADS-B
05:46PM 49.1511 -123.4039 292° West 429 494 38,000  Level FlightAware ADS-B (CYWH)
05:47PM 49.1778 -123.4967 294° West 430 495 38,000  Level FlightAware ADS-B
05:47PM 49.1861 -123.5250 294° West 429 494 38,000  Level FlightAware ADS-B
05:47PM 49.1964 -123.5614 293° West 425 489 38,000  Level FlightAware ADS-B (CYCD)
05:47PM 49.2043 -123.5890 294° West 424 488 38,000  Level FlightAware ADS-B (CYCD)
05:48PM 49.2100 -123.6090 294° West 426 490 38,000  Level FlightAware ADS-B
05:48PM 49.2252 -123.6620 294° West 423 487 38,000  Level FlightAware ADS-B
05:48PM 49.2337 -123.6920 293° West 422 486 38,000  Level FlightAware ADS-B
05:48PM 49.2497 -123.7487 293° West 418 481 38,000  Level FlightAware ADS-B
05:49PM 49.2575 -123.7760 294° West 417 480 38,000  Level FlightAware ADS-B
05:49PM 49.2687 -123.8155 294° West 413 475 38,000  Level FlightAware ADS-B
05:49PM 49.2803 -123.8570 293° West 412 474 38,000  Level FlightAware ADS-B
05:50PM 49.3008 -123.9289 294° West 410 472 38,000  Level FlightAware ADS-B (CYCD)
05:50PM 49.3035 -123.9390 292° West 410 472 38,000  Level FlightAware ADS-B
05:50PM 49.3178 -123.9892 294° West 413 475 38,000  Level FlightAware ADS-B
05:50PM 49.3263 -124.0190 294° West 414 476 38,000  Level FlightAware ADS-B
05:51PM 49.3430 -124.0785 293° West 416 479 38,000  Level FlightAware ADS-B
05:51PM 49.3495 -124.1020 293° West 417 480 38,000  Level FlightAware ADS-B
05:51PM 49.3569 -124.1283 293° West 416 479 38,000  Level FlightAware ADS-B
05:52PM 49.3867 -124.2353 293° West 420 483 38,000  Level FlightAware ADS-B
05:52PM 49.4116 -124.3248 293° West 424 488 38,000  Level FlightAware ADS-B
05:53PM 49.4304 -124.3932 293° West 424 488 38,000  Level FlightAware ADS-B
05:53PM 49.4544 -124.4800 293° West 423 487 38,000  Level FlightAware ADS-B
05:53PM 49.4589 -124.4965 293° West 424 488 38,000  Level FlightAware ADS-B
05:54PM 49.4801 -124.5740 293° West 423 487 38,000  Level FlightAware ADS-B
05:54PM 49.4907 -124.6119 293° West 424 488 38,000  Level FlightAware ADS-B
05:54PM 49.5039 -124.6600 293° West 423 487 38,000  Level FlightAware ADS-B
05:54PM 49.5132 -124.6945 293° West 428 493 38,000  Level FlightAware ADS-B
05:55PM 49.5365 -124.7800 293° West 425 489 38,000  Level FlightAware ADS-B
05:55PM 49.5584 -124.8604 293° West 424 488 38,000  Level FlightAware ADS-B
05:56PM 49.5821 -124.9479 293° West 426 490 38,000  Level FlightAware ADS-B
05:56PM 49.6057 -125.0355 293° West 423 487 38,000  Level FlightAware ADS-B
05:57PM 49.6341 -125.1416 293° West 424 488 38,000  Level FlightAware ADS-B
05:57PM 49.6566 -125.2253 293° West 430 495 38,000  Level FlightAware ADS-B
05:58PM 49.6792 -125.3100 292° West 434 499 38,000  Level FlightAware ADS-B
05:58PM 49.7001 -125.3892 292° West 436 502 38,000  Level FlightAware ADS-B
05:59PM 49.7249 -125.4830 292° West 436 502 38,000  Level FlightAware ADS-B
05:59PM 49.7451 -125.5601 292° West 435 501 38,000  Level FlightAware ADS-B
06:00PM 49.7764 -125.6789 292° West 436 502 38,000  Level FlightAware ADS-B (CYCD)
06:01PM 49.8087 -125.8030 292° West 433 498 38,000  Level FlightAware ADS-B (CYCD)
06:01PM 49.8187 -125.8414 292° West 430 495 38,000  Level FlightAware ADS-B (CYCD)
06:03PM 49.8840 -126.0950 292° West 427 491 38,000  Level FlightAware
06:03PM 49.9120 -126.2040 292° West 417 480 38,000  Level FlightAware
06:04PM 49.9590 -126.3890 292° West 417 480 38,000  Level FlightAware
06:05PM 49.9930 -126.5230 292° West 418 481 38,000  Level FlightAware
06:06PM 50.0170 -126.6170 292° West 419 482 38,000  Level FlightAware
06:06PM 50.0203 -126.6309 290° West 421 484 38,000  Level FlightAware ADS-B
06:07PM 50.0680 -126.8200 292° West 422 486 38,000  Level FlightAware
06:07PM 50.0960 -126.9330 291° West 424 488 38,000  Level FlightAware
06:08PM 50.1270 -127.0600 291° West 424 488 38,000  Level FlightAware
06:09PM 50.1470 -127.1420 291° West 424 488 38,000  Level FlightAware
06:10PM 50.1840 -127.2910 291° West 428 493 38,000  Level FlightAware
06:10PM 50.2170 -127.4310 290° West 430 495 38,000  Level FlightAware
06:12PM 50.2620 -127.6510 288° West 442 509 38,000  Level FlightAware
06:12PM 50.2830 -127.8000 282° West 437 503 38,000  Level FlightAware
06:13PM 50.3000 -127.9270 282° West 438 504 38,000  Level FlightAware
06:14PM 50.3190 -128.0560 283° West 438 504 38,000  Level FlightAware
06:14PM 50.3280 -128.1310 281° West 438 504 38,000  Level FlightAware
06:15PM 50.3470 -128.2590 283° West 438 504 38,000  Level FlightAware
06:16PM 50.3720 -128.4550 281° West 439 505 38,000  Level FlightAware
06:17PM 50.3950 -128.6240 282° West 439 505 38,000  Level FlightAware
06:18PM 50.4170 -128.7860 282° West 439 505 38,000  Level FlightAware
06:18PM 50.4210 -128.8180 281° West 439 505 38,000  Level FlightAware
06:19PM 50.4420 -128.9770 282° West 439 505 38,000  Level FlightAware
06:20PM 50.4690 -129.1730 282° West 439 505 38,000  Level FlightAware
06:21PM 50.4810 -129.2630 282° West 439 505 38,000  Level FlightAware
06:22PM 50.4950 -129.3640 282° West 439 505 38,000  Level FlightAware
06:22PM 50.5120 -129.4920 282° West 439 505 38,000  Level FlightAware
06:23PM 50.5250 -129.5870 282° West 439 505 38,000  Level FlightAware
06:24PM 50.5420 -129.7150 282° West 439 505 38,000  Level FlightAware
06:24PM 50.5550 -129.8110 282° West 439 505 38,000  Level FlightAware
06:25PM 50.5680 -129.9060 282° West 439 505 38,000  Level FlightAware
06:26PM 50.5810 -130.0020 282° West 439 505 38,000  Level FlightAware
06:26PM 50.5850 -130.0340 281° West 439 505 38,000  Level FlightAware
06:27PM 50.6167 -130.5667 281° West 440 506 38,000  Level Vancouver Center
06:28PM 50.6333 -130.7333 279° West 440 506 38,000  Level Vancouver Center
06:29PM 50.6500 -130.9500 277° West 450 518 38,000  Level Vancouver Center
06:30PM 50.6833 -131.1333 286° West 450 518 38,000  Level Vancouver Center
06:31PM 50.7000 -131.3167 278° West 440 506 38,000  Level Vancouver Center
06:32PM 50.7167 -131.5167 278° West 440 506 38,000  Level Vancouver Center
06:33PM 50.7500 -131.7000 286° West 450 518 38,000  Level Vancouver Center
06:34PM 50.7667 -131.9167 277° West 450 518 38,000  Level Vancouver Center
06:35PM 50.7833 -132.1000 278° West 450 518 38,000  Level Vancouver Center
06:36PM 50.8000 -132.2833 278° West 450 518 38,000  Level Vancouver Center
06:37PM 50.8167 -132.4833 278° West 450 518 38,000  Level Vancouver Center
06:38PM 50.8167 -132.6667 270° West 440 506 38,000  Level Vancouver Center
06:39PM 50.8500 -132.8500 286° West 440 506 38,000 60 Level Vancouver Center
06:40PM 50.8667 -133.0500 278° West 450 518 38,200 480 Climbing Vancouver Center
06:41PM 50.8833 -133.2667 277° West 440 506 39,000 360 Climbing Vancouver Center
06:42PM 50.9000 -133.4500 278° West 450 518 39,000  Level Vancouver Center
06:43PM 50.9167 -133.6500 278° West 440 506 39,000  Level Vancouver Center
06:44PM 50.9333 -133.8333 278° West 440 506 39,000  Level Vancouver Center
06:45PM 50.9500 -134.0167 278° West 450 518 39,000  Level Vancouver Center
06:46PM 50.9667 -134.2167 278° West 450 518 39,000  Level Vancouver Center
06:47PM 50.9833 -134.4000 278° West 450 518 39,000  Level Vancouver Center
06:48PM 51.0167 -134.6000 285° West 440 506 39,000  Level Vancouver Center
06:49PM 51.0500 -134.7667 288° West 440 506 39,000  Level Vancouver Center
06:50PM 51.0833 -134.9667 285° West 440 506 39,000  Level Vancouver Center
06:51PM 51.1333 -135.1667 292° West 440 506 39,000  Level Vancouver Center
06:51PM 51.1500 -135.1667 288° West 441 507 39,000  Level Oakland Oceanic (ODAPS)
06:52PM 51.1667 -135.3333 288° West 440 506 39,000  Level Vancouver Center
06:53PM 51.2000 -135.5333 285° West 450 518 39,000  Level Vancouver Center
06:54PM 51.2333 -135.7000 288° West 430 495 39,000  Level Vancouver Center
06:55PM 51.2833 -135.8167 287° West 441 507 39,000  Level Oakland Oceanic (ODAPS)
06:56PM 51.3000 -136.1000 287° West 450 518 39,000  Level Vancouver Center
06:57PM 51.3333 -136.2667 288° West 440 506 39,000  Level Vancouver Center
06:58PM 51.3667 -136.4667 285° West 430 495 39,000  Level Vancouver Center
06:59PM 51.4167 -136.6333 296° West 450 518 39,000  Level Vancouver Center
07:00PM 51.4333 -136.8333 278° West 440 506 39,000  Level Vancouver Center
07:01PM 51.4667 -137.0000 288° West 450 518 39,000  Level Vancouver Center
07:02PM 51.5167 -137.2167 290° West 440 506 39,000  Level Vancouver Center
07:03PM 51.5500 -137.4167 285° West 440 506 39,000  Level Vancouver Center
07:04PM 51.5667 -137.6000 278° West 440 506 39,000  Level Vancouver Center
07:07PM 51.6573 -137.9086 286° West  Level FlightAware Approximate
07:09PM 51.7500 -138.4667 285° West 453 521 39,000  Level Oakland Oceanic (ODAPS)
07:16PM 51.9698 -139.8074 284° West 453 521 39,000  Level FlightAware Transoceanic
07:17PM 52.0000 -140.0000 292° West 453 521 39,000  Level FlightAware Transoceanic
07:17PM 52.0000 -140.0000 292° West 451 519 39,000  Level Oakland Oceanic (ODAPS)
07:18PM 52.0490 -140.1945 292° West 453 521 39,000  Level FlightAware Transoceanic
07:19PM 52.0976 -140.3893 292° West 453 521 39,000  Level FlightAware Transoceanic
07:19PM 52.1000 -140.3833 292° West 456 525 39,000  Level Oakland Oceanic (ODAPS)
07:20PM 52.1460 -140.5847 292° West 453 521 39,000  Level FlightAware Transoceanic
07:21PM 52.1940 -140.7804 292° West 453 521 39,000  Level FlightAware Transoceanic
07:22PM 52.2417 -140.9765 292° West 453 521 39,000  Level FlightAware Transoceanic
07:23PM 52.2779 -141.1268 291° West 451 519 39,000  Level FlightAware Transoceanic
07:23PM 52.2667 -141.1167 292° West 456 525 39,000  Level Oakland Oceanic (ODAPS)
07:24PM 52.3232 -141.3160 291° West 451 519 39,000  Level FlightAware Transoceanic
07:25PM 52.3791 -141.5376 291° West 456 525 39,000  Level FlightAware Transoceanic
07:26PM 52.4245 -141.7314 291° West 456 525 39,000  Level FlightAware Transoceanic
07:27PM 52.4696 -141.9256 291° West 456 525 39,000  Level FlightAware Transoceanic
07:28PM 52.5143 -142.1201 291° West 456 525 39,000  Level FlightAware Transoceanic
07:29PM 52.5413 -142.2846 291° West 456 525 39,000  Level FlightAware Transoceanic
07:30PM 52.5859 -142.4807 290° West 456 525 39,000  Level FlightAware Transoceanic
07:31PM 52.6302 -142.6771 290° West 456 525 39,000  Level FlightAware Transoceanic
07:32PM 52.6742 -142.8740 290° West 456 525 39,000  Level FlightAware Transoceanic
07:33PM 52.7179 -143.0712 290° West 456 525 39,000  Level FlightAware Transoceanic
07:34PM 52.7612 -143.2689 290° West 456 525 39,000  Level FlightAware Transoceanic
07:35PM 52.8042 -143.4669 290° West 456 525 39,000  Level FlightAware Transoceanic
07:36PM 52.8469 -143.6654 290° West 456 525 39,000  Level FlightAware Transoceanic
07:37PM 52.8893 -143.8642 289° West 456 525 39,000  Level FlightAware Transoceanic
07:37PM 52.8833 -143.8167 289° West 461 531 39,000  Level Oakland Oceanic (ODAPS)
07:38PM 52.9313 -144.0634 289° West 456 525 39,000  Level FlightAware Transoceanic
07:39PM 52.9730 -144.2630 289° West 456 525 39,000  Level FlightAware Transoceanic
07:40PM 53.0143 -144.4630 289° West 456 525 39,000  Level FlightAware Transoceanic
07:41PM 53.0553 -144.6633 289° West 456 525 39,000  Level FlightAware Transoceanic
07:42PM 53.0960 -144.8641 289° West 456 525 39,000  Level FlightAware Transoceanic
07:43PM 53.1320 -145.0268 288° West 461 531 39,000  Level FlightAware Transoceanic
07:44PM 53.1722 -145.2299 288° West 461 531 39,000  Level FlightAware Transoceanic
07:45PM 53.2121 -145.4333 288° West 461 531 39,000  Level FlightAware Transoceanic
07:46PM 53.2517 -145.6371 288° West 461 531 39,000  Level FlightAware Transoceanic
07:47PM 53.2909 -145.8412 288° West 461 531 39,000  Level FlightAware Transoceanic
07:48PM 53.3297 -146.0458 288° West 461 531 39,000  Level FlightAware Transoceanic
07:49PM 53.3682 -146.2507 287° West 461 531 39,000  Level FlightAware Transoceanic
07:50PM 53.4063 -146.4560 287° West 461 531 39,000  Level FlightAware Transoceanic
07:51PM 53.4441 -146.6617 287° West 461 531 39,000  Level FlightAware Transoceanic
07:51PM 53.4333 -146.6167 287° West 466 536 39,000  Level Oakland Oceanic (ODAPS)
07:52PM 53.4816 -146.8677 287° West 461 531 39,000  Level FlightAware Transoceanic
07:53PM 53.5187 -147.0740 287° West 461 531 39,000  Level FlightAware Transoceanic
07:54PM 53.5554 -147.2808 287° West 461 531 39,000  Level FlightAware Transoceanic
07:55PM 53.5918 -147.4879 286° West 461 531 39,000  Level FlightAware Transoceanic
07:56PM 53.6278 -147.6953 286° West 461 531 39,000  Level FlightAware Transoceanic
07:57PM 53.6570 -147.8747 286° West 466 536 39,000  Level FlightAware Transoceanic
07:58PM 53.6930 -148.0856 286° West 466 536 39,000  Level FlightAware Transoceanic
07:59PM 53.7286 -148.2969 286° West 466 536 39,000  Level FlightAware Transoceanic
08:00PM 53.7638 -148.5086 286° West 466 536 39,000  Level FlightAware Transoceanic
08:01PM 53.7987 -148.7206 285° West 466 536 39,000  Level FlightAware Transoceanic
08:02PM 53.8332 -148.9330 285° West 466 536 39,000  Level FlightAware Transoceanic
08:03PM 53.8673 -149.1457 285° West 466 536 39,000  Level FlightAware Transoceanic
08:04PM 53.9011 -149.3588 285° West 466 536 39,000 480 Level FlightAware Transoceanic
08:04PM 53.9333 -149.5167 283° West 470 541 40,000  Climbing Oakland Oceanic (ODAPS)
08:05PM 53.9344 -149.5722 285° West 466 536 39,000 -900 Descending FlightAware Transoceanic
08:06PM 53.9674 -149.7859 285° West 466 536 39,000  Level FlightAware Transoceanic
08:07PM 54.0000 -150.0000 293° West 466 536 39,000 780 Level FlightAware Transoceanic
08:07PM 54.0000 -150.0000 293° West 481 554 40,000  Climbing Oakland Oceanic (ODAPS)
08:08PM 54.0543 -150.2158 293° West 466 536 39,000 -600 Descending FlightAware Transoceanic
08:09PM 54.1082 -150.4322 293° West 466 536 39,000  Level FlightAware Transoceanic
08:10PM 54.1618 -150.6491 293° West 466 536 39,000 480 Level FlightAware Transoceanic
08:11PM 54.2149 -150.8666 293° West 470 541 40,000 480 Climbing FlightAware Transoceanic
08:12PM 54.2676 -151.0846 292° West 470 541 40,000  Level FlightAware Transoceanic
08:13PM 54.3130 -151.2741 292° West 481 554 40,000  Level FlightAware Transoceanic
08:14PM 54.3639 -151.4883 292° West 481 554 40,000  Level FlightAware Transoceanic
08:15PM 54.4143 -151.7030 292° West 481 554 40,000  Level FlightAware Transoceanic
08:16PM 54.4644 -151.9183 292° West 481 554 40,000  Level FlightAware Transoceanic
08:17PM 54.5141 -152.1341 292° West 481 554 40,000  Level FlightAware Transoceanic
08:18PM 54.5635 -152.3504 291° West 481 554 40,000  Level FlightAware Transoceanic
08:18PM 54.5833 -152.4500 291° West 481 554 40,000  Level Oakland Oceanic (ODAPS)
08:19PM 54.6124 -152.5672 291° West 481 554 40,000  Level FlightAware Transoceanic
08:20PM 54.6610 -152.7846 291° West 481 554 40,000  Level FlightAware Transoceanic
08:21PM 54.7091 -153.0025 291° West 481 554 40,000  Level FlightAware Transoceanic
08:22PM 54.7569 -153.2209 291° West 481 554 40,000  Level FlightAware Transoceanic
08:23PM 54.8043 -153.4398 290° West 481 554 40,000  Level FlightAware Transoceanic
08:24PM 54.8667 -153.7423 290° West 481 554 40,000  Level FlightAware Transoceanic
08:25PM 54.9126 -153.9594 290° West 481 554 40,000  Level FlightAware Transoceanic
08:26PM 54.9581 -154.1771 290° West 481 554 40,000  Level FlightAware Transoceanic
08:27PM 55.0032 -154.3952 290° West 481 554 40,000  Level FlightAware Transoceanic
08:28PM 55.0479 -154.6138 290° West 481 554 40,000  Level FlightAware Transoceanic
08:29PM 55.0923 -154.8329 289° West 481 554 40,000  Level FlightAware Transoceanic
08:30PM 55.1362 -155.0525 289° West 481 554 40,000  Level FlightAware Transoceanic
08:31PM 55.1797 -155.2725 289° West 481 554 40,000  Level FlightAware Transoceanic
08:32PM 55.2229 -155.4931 289° West 481 554 40,000  Level FlightAware Transoceanic
08:32PM 55.2167 -155.4333 288° West 470 541 40,000  Level Anchorage Center
08:32PM 55.2500 -155.5667 294° West 470 541 40,000  Level Anchorage Center
08:33PM 55.2656 -155.7141 289° West 481 554 40,000  Level FlightAware Transoceanic
08:34PM 55.3079 -155.9356 288° West 481 554 40,000  Level FlightAware Transoceanic
08:34PM 55.3000 -155.7833 292° West 470 541 40,000  Level Anchorage Center
08:34PM 55.3333 -156.0000 285° West 470 541 40,000  Level Anchorage Center
08:35PM 55.3499 -156.1575 288° West 481 554 40,000  Level FlightAware Transoceanic
08:35PM 55.3833 -156.2333 291° West 480 552 40,000  Level Anchorage Center
08:36PM 55.3914 -156.3799 288° West 481 554 40,000  Level FlightAware Transoceanic
08:37PM 55.4167 -156.4500 285° West 470 541 40,000  Level Anchorage Center
08:37PM 55.4325 -156.6028 288° West 481 554 40,000  Level FlightAware Transoceanic
08:38PM 55.4667 -156.6833 291° West 480 552 40,000  Level Anchorage Center
08:39PM 55.5000 -156.9000 285° West 460 529 40,000  Level Anchorage Center
08:40PM 55.5333 -157.1167 285° West 470 541 40,000  Level Anchorage Center
08:41PM 55.5833 -157.3500 291° West 470 541 40,000  Level Anchorage Center
08:42PM 55.6167 -157.5667 285° West 470 541 40,000  Level Anchorage Center
08:43PM 55.6500 -157.7500 288° West 470 541 40,000  Level Anchorage Center
08:44PM 55.6833 -157.9833 284° West 480 552 40,000  Level Anchorage Center
08:45PM 55.7333 -158.2167 291° West 470 541 40,000  Level Anchorage Center
08:46PM 55.7667 -158.4500 284° West 480 552 40,000  Level Anchorage Center
08:47PM 55.8000 -158.6833 284° West 490 564 40,000  Level Anchorage Center
08:48PM 55.8333 -158.9167 284° West 480 552 40,000  Level Anchorage Center
08:49PM 55.8833 -159.1500 291° West 490 564 40,000  Level Anchorage Center
08:50PM 55.9167 -159.3833 284° West 490 564 40,000  Level Anchorage Center
08:51PM 55.9500 -159.6333 283° West 500 575 40,000  Level Anchorage Center
08:52PM 56.0000 -159.8833 290° West 500 575 40,000  Level Anchorage Center
08:53PM 56.0333 -160.1167 284° West 500 575 40,000  Level Anchorage Center
08:54PM 56.0667 -160.3667 284° West 500 575 40,000  Level Anchorage Center
08:55PM 56.1000 -160.6000 284° West 500 575 40,000  Level Anchorage Center
08:56PM 56.1333 -160.8667 283° West 510 587 40,000  Level Anchorage Center
08:57PM 56.1667 -161.1167 284° West 510 587 40,000  Level Anchorage Center
08:58PM 56.2000 -161.3667 284° West 510 587 40,000  Level Anchorage Center
08:59PM 56.2333 -161.6167 284° West 510 587 40,000  Level Anchorage Center
09:00PM 56.2667 -161.8667 284° West 510 587 40,000  Level Anchorage Center
09:01PM 56.3000 -162.1667 281° West 510 587 40,000  Level Anchorage Center
09:02PM 56.3333 -162.4167 284° West 500 575 40,000  Level Anchorage Center
09:03PM 56.3500 -162.6500 277° West 490 564 40,000  Level Anchorage Center
09:04PM 56.3833 -162.9000 284° West 490 564 40,000  Level Anchorage Center
09:05PM 56.4167 -163.1333 285° West 480 552 40,000  Level Anchorage Center
09:06PM 56.4500 -163.3833 284° West 490 564 40,000  Level Anchorage Center
09:07PM 56.4667 -163.6333 277° West 490 564 40,000  Level Anchorage Center
09:08PM 56.5000 -163.8667 285° West 490 564 40,000  Level Anchorage Center
09:09PM 56.5167 -164.1167 277° West 500 575 40,000  Level Anchorage Center
09:10PM 56.5500 -164.4667 280° West 490 564 40,000  Level Anchorage Center
09:11PM 56.5833 -164.7000 285° West 490 564 40,000  Level Anchorage Center
09:12PM 56.6000 -164.9500 277° West 490 564 40,000  Level Anchorage Center
09:13PM 56.6333 -165.1833 285° West 480 552 40,000  Level Anchorage Center
09:14PM 56.6500 -165.4333 277° West 480 552 40,000  Level Anchorage Center
09:15PM 56.6667 -165.6833 277° West 480 552 40,000  Level Anchorage Center
09:16PM 56.7000 -165.8833 287° West 470 541 40,000  Level Anchorage Center
09:17PM 56.7167 -166.1167 278° West 470 541 40,000  Level Anchorage Center
09:18PM 56.7333 -166.3667 277° West 470 541 40,000  Level Anchorage Center
09:19PM 56.7500 -166.6000 278° West 470 541 40,000  Level Anchorage Center
09:20PM 56.7667 -166.8500 277° West 480 552 40,000  Level Anchorage Center
09:21PM 56.8000 -167.0833 285° West 480 552 40,000  Level Anchorage Center
09:22PM 56.8167 -167.3333 277° West 490 564 40,000  Level Anchorage Center
09:23PM 56.8333 -167.5833 277° West 490 564 40,000  Level Anchorage Center
09:24PM 56.8500 -167.8333 277° West 500 575 40,000  Level Anchorage Center
09:25PM 56.8667 -168.0833 277° West 490 564 40,000  Level Anchorage Center
09:26PM 56.8833 -168.3500 277° West 490 564 40,000  Level Anchorage Center
09:27PM 56.9000 -168.5833 278° West 490 564 40,000  Level Anchorage Center
09:28PM 56.9167 -168.8333 277° West 480 552 40,000  Level Anchorage Center
09:29PM 56.9333 -169.0833 277° West 480 552 40,000  Level Anchorage Center
09:30PM 56.9500 -169.3167 278° West 480 552 40,000  Level Anchorage Center
09:31PM 56.9667 -169.5667 277° West 470 541 40,000  Level Anchorage Center
09:32PM 56.9833 -169.8167 277° West 480 552 40,000  Level Anchorage Center
09:33PM 56.9833 -170.0667 270° West 480 552 40,000  Level Anchorage Center
09:34PM 56.9833 -170.3000 270° West 460 529 40,000  Level Anchorage Center
09:35PM 56.9833 -170.5500 270° West 470 541 40,000  Level Anchorage Center
09:36PM 56.9667 -170.8000 263° West 470 541 40,000  Level Anchorage Center
09:37PM 56.9667 -171.0500 270° West 470 541 40,000  Level Anchorage Center
09:38PM 56.9500 -171.2833 263° West 470 541 40,000  Level Anchorage Center
09:39PM 56.9333 -171.5333 263° West 470 541 40,000  Level Anchorage Center
09:40PM 56.9333 -171.7667 270° West 470 541 40,000  Level Anchorage Center
09:41PM 56.9167 -172.0000 263° West 460 529 40,000  Level Anchorage Center
09:42PM 56.9167 -172.2500 270° West 470 541 40,000  Level Anchorage Center
09:43PM 56.9000 -172.4833 263° West 470 541 40,000  Level Anchorage Center
09:44PM 56.8833 -172.7167 263° West 470 541 40,000  Level Anchorage Center
09:45PM 56.8833 -172.9667 270° West 470 541 40,000  Level Anchorage Center
09:46PM 56.8667 -173.2000 263° West 460 529 40,000  Level Anchorage Center
09:47PM 56.8500 -173.4333 263° West 460 529 40,000  Level Anchorage Center
09:48PM 56.8333 -173.6667 263° West 460 529 40,000  Level Anchorage Center
09:49PM 56.8333 -173.9000 270° West 460 529 40,000  Level Anchorage Center
09:50PM 56.8000 -174.1500 256° West 470 541 40,000  Level Anchorage Center
09:51PM 56.8000 -174.3833 270° West 460 529 40,000  Level Anchorage Center
09:52PM 56.7833 -174.6167 263° West 470 541 40,000  Level Anchorage Center
09:53PM 56.7667 -174.8500 263° West 460 529 40,000  Level Anchorage Center
09:54PM 56.7500 -175.0333 261° West 460 529 40,000  Level Anchorage Center
09:55PM 56.7333 -175.2667 263° West 460 529 40,000  Level Anchorage Center
09:56PM 56.7167 -175.5000 263° West 460 529 40,000  Level Anchorage Center
09:57PM 56.7000 -175.7333 263° West 460 529 40,000  Level Anchorage Center
09:58PM 56.6833 -175.9667 263° West 450 518 40,000  Level Anchorage Center
10:00PM 56.6500 -176.4500 262° West 458 527 40,000  Level Anchorage Center
10:07PM 56.5119 -178.0254 260° West 458 527 40,000  Level FlightAware Transoceanic
10:08PM 56.4906 -178.2495 260° West 458 527 40,000  Level FlightAware Transoceanic
10:09PM 56.4688 -178.4733 260° West 458 527 40,000  Level FlightAware Transoceanic
10:10PM 56.4467 -178.6969 260° West 458 527 40,000  Level FlightAware Transoceanic
10:10PM 56.4500 -178.6167 260° West 458 527 40,000  Level Anchorage Center
10:11PM 56.4241 -178.9202 260° West 458 527 40,000  Level FlightAware Transoceanic
10:12PM 56.4011 -179.1432 259° West 458 527 40,000  Level FlightAware Transoceanic
10:13PM 56.3778 -179.3660 259° West 458 527 40,000  Level FlightAware Transoceanic
10:14PM 56.3540 -179.5885 259° West 458 527 40,000  Level FlightAware Transoceanic
10:15PM 56.3299 -179.8107 259° West 458 527 40,000  Level FlightAware Transoceanic
10:16PM 56.3079 -179.9848 259° West 458 527 40,000  Level FlightAware Transoceanic
10:17PM 56.2827 179.7882 259° West 458 527 40,000  Level FlightAware Transoceanic
10:18PM 56.2571 179.5615 258° West 458 527 40,000  Level FlightAware Transoceanic
10:19PM 56.2312 179.3351 258° West 458 527 40,000  Level FlightAware Transoceanic
10:19PM 56.2167 179.2667 259° West 451 519 40,000  Level Anchorage Center
10:20PM 56.2048 179.1090 258° West 458 527 40,000  Level FlightAware Transoceanic
10:21PM 56.1780 178.8832 258° West 458 527 40,000  Level FlightAware Transoceanic
10:22PM 56.1508 178.6578 258° West 458 527 40,000  Level FlightAware Transoceanic
10:23PM 56.1231 178.4326 257° West 458 527 40,000  Level FlightAware Transoceanic
10:24PM 56.0951 178.2078 257° West 458 527 40,000  Level FlightAware Transoceanic
10:25PM 56.0667 177.9833 254° West 458 527 40,000  Level FlightAware Transoceanic
10:25PM 56.0667 177.9833 254° West 451 519 40,000  Level Anchorage Center
10:26PM 56.0337 177.7779 254° West 451 519 40,000  Level FlightAware Transoceanic
10:27PM 56.0004 177.5728 254° West 451 519 40,000  Level FlightAware Transoceanic
10:28PM 55.9667 177.3681 254° West 451 519 40,000  Level FlightAware Transoceanic
10:29PM 55.9327 177.1638 253° West 451 519 40,000  Level FlightAware Transoceanic
10:29PM 55.9333 177.2000 253° West 453 521 40,000  Level Anchorage Center
10:30PM 55.8984 176.9598 253° West 451 519 40,000  Level FlightAware Transoceanic
10:31PM 55.8637 176.7561 253° West 451 519 40,000  Level FlightAware Transoceanic
10:31PM 55.8667 176.7833 252° West 460 529 40,000  Level Anchorage Center
10:32PM 55.8487 176.6690 253° West 451 519 40,000  Level FlightAware Transoceanic
10:32PM 55.8333 176.6167 250° West 440 506 40,000  Level Anchorage Center
10:33PM 55.8111 176.4514 253° West 451 519 40,000  Level FlightAware Transoceanic
10:33PM 55.7833 176.3667 251° West 450 518 40,000  Level Anchorage Center
10:34PM 55.7730 176.2342 253° West 451 519 40,000  Level FlightAware Transoceanic
10:34PM 55.7500 176.1500 255° West 450 518 40,000  Level Anchorage Center
10:35PM 55.7137 175.9242 252° West 453 521 40,000  Level FlightAware Transoceanic
10:35PM 55.7167 175.9500 254° West 460 529 40,000  Level Anchorage Center
10:36PM 55.6758 175.7129 252° West 453 521 40,000  Level FlightAware Transoceanic
10:36PM 55.6667 175.7333 248° West 450 518 40,000  Level Anchorage Center
10:37PM 55.6333 175.5333 254° West 450 518 40,000  Level Anchorage Center
10:38PM 55.6000 175.3167 255° West 450 518 40,000  Level Anchorage Center
10:39PM 55.5667 175.1333 252° West 450 518 40,000  Level Anchorage Center
10:40PM 55.5167 174.9000 249° West 450 518 40,000  Level Anchorage Center
10:41PM 55.4833 174.7167 252° West 460 529 40,000  Level Anchorage Center
10:42PM 55.4333 174.4833 249° West 450 518 40,000  Level Anchorage Center
10:43PM 55.4000 174.2500 256° West 460 529 40,000  Level Anchorage Center
10:44PM 55.3500 174.0667 244° Southwest 460 529 40,000  Level Anchorage Center
10:45PM 55.3167 173.8333 256° West 460 529 40,000  Level Anchorage Center
10:46PM 55.2833 173.6500 252° West 460 529 40,000  Level Anchorage Center
10:47PM 55.2333 173.4333 248° West 460 529 40,000  Level Anchorage Center
10:48PM 55.1833 173.2500 245° Southwest 460 529 40,000  Level Anchorage Center
10:49PM 55.1500 173.0167 256° West 470 541 40,000  Level Anchorage Center
10:50PM 55.1000 172.7833 250° West 460 529 40,000  Level Anchorage Center
10:51PM 55.0500 172.6000 245° Southwest 450 518 40,000  Level Anchorage Center
10:52PM 55.0167 172.3833 255° West 460 529 40,000  Level Anchorage Center
10:53PM 54.9667 172.1833 247° West 470 541 40,000  Level Anchorage Center
10:54PM 54.9167 171.9667 248° West 460 529 40,000  Level Anchorage Center
10:55PM 54.8500 171.8000 235° Southwest 450 518 40,000  Level Anchorage Center
10:56PM 54.7667 171.6167 232° Southwest 460 529 40,000  Level Anchorage Center
10:57PM 54.7000 171.4167 240° Southwest 460 529 40,000  Level Anchorage Center
10:58PM 54.6333 171.2667 233° Southwest 460 529 40,000  Level Anchorage Center
10:59PM 54.5500 171.0667 234° Southwest 470 541 40,000  Level Anchorage Center
11:00PM 54.4833 170.9167 233° Southwest 450 518 40,000  Level Anchorage Center
11:01PM 54.4000 170.7167 234° Southwest 460 529 40,000  Level Anchorage Center
11:02PM 54.3333 170.5667 233° Southwest 460 529 40,000  Level Anchorage Center
11:03PM 54.2500 170.3667 235° Southwest 480 552 40,000  Level Anchorage Center
11:04PM 54.1833 170.2333 230° Southwest 440 506 40,000  Level Anchorage Center
11:05PM 54.1000 170.0333 235° Southwest 470 541 40,000  Level Anchorage Center
11:06PM 54.0167 169.8500 232° Southwest 460 529 40,000  Level Anchorage Center
11:07PM 53.9500 169.7000 233° Southwest 460 529 40,000  Level Anchorage Center
11:08PM 53.8667 169.5167 232° Southwest 450 518 40,000  Level Anchorage Center
11:09PM 53.8000 169.3667 233° Southwest 470 541 40,000  Level Anchorage Center
11:10PM 53.7167 169.1667 235° Southwest 460 529 40,000  Level Anchorage Center
11:11PM 53.6667 169.0000 243° Southwest 460 529 40,000  Level Anchorage Center
11:12PM 53.5833 168.8000 235° Southwest 470 541 40,000  Level Anchorage Center
11:13PM 53.5167 168.6000 241° Southwest 480 552 40,000  Level Anchorage Center
11:14PM 53.4667 168.4333 243° Southwest 460 529 40,000  Level Anchorage Center
11:15PM 53.4167 168.2333 239° Southwest 462 532 40,000  Level Anchorage Center
11:17PM 53.2667 167.8500 239° Southwest 463 533 40,000  Level Anchorage Center
11:22PM 52.9586 166.9629 238° Southwest 462 532 40,000  Level FlightAware Transoceanic
11:23PM 52.8766 166.7710 239° Southwest 463 533 40,000  Level FlightAware Transoceanic
11:24PM 52.8106 166.5930 238° Southwest 463 533 40,000  Level FlightAware Transoceanic
11:25PM 52.7444 166.4156 238° Southwest 463 533 40,000  Level FlightAware Transoceanic
11:26PM 52.6779 166.2388 238° Southwest 463 533 40,000  Level FlightAware Transoceanic
11:27PM 52.6112 166.0625 238° Southwest 463 533 40,000  Level FlightAware Transoceanic
11:27PM 52.6333 166.1000 238° Southwest 466 536 40,000  Level Anchorage Center
11:28PM 52.5442 165.8867 238° Southwest 463 533 40,000  Level FlightAware Transoceanic
11:29PM 52.4769 165.7114 238° Southwest 463 533 40,000  Level FlightAware Transoceanic
11:30PM 52.4094 165.5367 238° Southwest 463 533 40,000  Level FlightAware Transoceanic
11:31PM 52.3416 165.3625 237° Southwest 463 533 40,000  Level FlightAware Transoceanic
11:32PM 52.2736 165.1889 237° Southwest 463 533 40,000  Level FlightAware Transoceanic
11:33PM 52.2181 165.0367 237° Southwest 466 536 40,000  Level FlightAware Transoceanic
11:34PM 52.1480 164.8615 237° Southwest 466 536 40,000  Level FlightAware Transoceanic
11:35PM 52.0776 164.6868 237° Southwest 466 536 40,000  Level FlightAware Transoceanic
11:36PM 52.0070 164.5126 237° Southwest 466 536 40,000  Level FlightAware Transoceanic
11:36PM 51.9667 164.4000 236° Southwest 469 540 40,000  Level Anchorage Center
11:37PM 51.9361 164.3390 236° Southwest 466 536 40,000  Level FlightAware Transoceanic
11:38PM 51.8650 164.1659 236° Southwest 466 536 40,000  Level FlightAware Transoceanic
11:39PM 51.7935 163.9934 236° Southwest 466 536 40,000  Level FlightAware Transoceanic
11:40PM 51.7219 163.8214 236° Southwest 466 536 40,000  Level FlightAware Transoceanic
11:41PM 51.6500 163.6500 236° Southwest 466 536 40,000  Level FlightAware Transoceanic
11:41PM 51.6500 163.6500 236° Southwest 468 539 40,000  Level Anchorage Center
11:42PM 51.5786 163.4780 236° Southwest 466 536 40,000  Level FlightAware Transoceanic
11:43PM 51.5070 163.3065 236° Southwest 469 540 40,000  Level FlightAware Transoceanic
11:44PM 51.4352 163.1356 236° Southwest 469 540 40,000  Level FlightAware Transoceanic
11:45PM 51.3630 162.9652 236° Southwest 469 540 40,000  Level FlightAware Transoceanic
11:46PM 51.2907 162.7953 236° Southwest 469 540 40,000  Level FlightAware Transoceanic
11:46PM 51.2667 162.7167 235° Southwest 471 542 40,000  Level Anchorage Center
11:47PM 51.2006 162.5855 235° Southwest 468 539 40,000  Level FlightAware Transoceanic
11:48PM 51.1248 162.4101 235° Southwest 468 539 40,000  Level FlightAware Transoceanic
11:49PM 51.0487 162.2353 235° Southwest 468 539 40,000  Level FlightAware Transoceanic
11:50PM 50.9724 162.0610 235° Southwest 468 539 40,000  Level FlightAware Transoceanic
11:51PM 50.8957 161.8874 235° Southwest 468 539 40,000  Level FlightAware Transoceanic
11:52PM 50.8119 161.6834 235° Southwest 471 542 40,000  Level FlightAware Transoceanic
11:53PM 50.7353 161.5131 234° Southwest 471 542 40,000  Level FlightAware Transoceanic
11:54PM 50.6584 161.3434 234° Southwest 471 542 40,000  Level FlightAware Transoceanic
11:55PM 50.5812 161.1743 234° Southwest 471 542 40,000  Level FlightAware Transoceanic
11:56PM 50.5038 161.0057 234° Southwest 471 542 40,000  Level FlightAware Transoceanic
11:56PM 50.5333 161.1000 235° Southwest 477 549 40,000  Level Anchorage Center
11:57PM 50.4262 160.8377 234° Southwest 471 542 40,000  Level FlightAware Transoceanic
11:58PM 50.3483 160.6702 234° Southwest 471 542 40,000  Level FlightAware Transoceanic
11:59PM 50.2701 160.5033 234° Southwest 471 542 40,000  Level FlightAware Transoceanic
12:00AM 50.1918 160.3369 234° Southwest 471 542 40,000  Level FlightAware Transoceanic
12:01AM 50.1132 160.1711 233° Southwest 471 542 40,000  Level FlightAware Transoceanic
12:02AM 50.0465 160.0428 234° Southwest 477 549 40,000  Level FlightAware Transoceanic
12:03AM 49.9644 159.8687 234° Southwest 477 549 40,000  Level FlightAware Transoceanic
12:04AM 49.8821 159.6952 234° Southwest 477 549 40,000  Level FlightAware Transoceanic
12:05AM 49.7995 159.5223 233° Southwest 477 549 40,000  Level FlightAware Transoceanic
12:06AM 49.7167 159.3500 233° Southwest 477 549 40,000  Level FlightAware Transoceanic
12:07AM 49.6412 159.1959 233° Southwest 477 549 40,000  Level FlightAware Transoceanic
12:08AM 49.5655 159.0422 233° Southwest 477 549 40,000  Level FlightAware Transoceanic
12:09AM 49.4896 158.8891 233° Southwest 477 549 40,000  Level FlightAware Transoceanic
12:10AM 49.4135 158.7364 232° Southwest 477 549 40,000  Level FlightAware Transoceanic
12:11AM 49.3372 158.5841 232° Southwest 477 549 40,000  Level FlightAware Transoceanic
12:12AM 49.2607 158.4324 232° Southwest 477 549 40,000  Level FlightAware Transoceanic
12:13AM 49.1839 158.2811 232° Southwest 477 549 40,000  Level FlightAware Transoceanic
12:14AM 49.1070 158.1303 232° Southwest 477 549 40,000  Level FlightAware Transoceanic
12:15AM 49.0299 157.9799 232° Southwest 477 549 40,000  Level FlightAware Transoceanic
12:16AM 48.9527 157.8301 232° Southwest 477 549 40,000  Level FlightAware Transoceanic
12:17AM 48.8752 157.6806 232° Southwest 477 549 40,000  Level FlightAware Transoceanic
12:18AM 48.7975 157.5317 232° Southwest 477 549 40,000  Level FlightAware Transoceanic
12:19AM 48.7196 157.3832 231° Southwest 477 549 40,000  Level FlightAware Transoceanic
12:20AM 48.6416 157.2352 231° Southwest 477 549 40,000  Level FlightAware Transoceanic
12:21AM 48.5633 157.0876 231° Southwest 477 549 40,000  Level FlightAware Transoceanic
12:22AM 48.4849 156.9405 231° Southwest 477 549 40,000  Level FlightAware Transoceanic
12:23AM 48.4063 156.7938 231° Southwest 477 549 40,000  Level FlightAware Transoceanic
12:24AM 48.3274 156.6476 231° Southwest 477 549 40,000  Level FlightAware Transoceanic
12:25AM 48.2485 156.5019 231° Southwest 477 549 40,000  Level FlightAware Transoceanic
12:26AM 48.1693 156.3566 231° Southwest 477 549 40,000  Level FlightAware Transoceanic
12:27AM 48.0899 156.2117 231° Southwest 477 549 40,000  Level FlightAware Transoceanic
12:28AM 48.0104 156.0673 230° Southwest 477 549 40,000  Level FlightAware Transoceanic
12:29AM 47.9307 155.9233 230° Southwest 477 549 40,000  Level FlightAware Transoceanic
12:30AM 47.8508 155.7798 230° Southwest 477 549 40,000  Level FlightAware Transoceanic
12:31AM 47.7707 155.6367 230° Southwest 477 549 40,000  Level FlightAware Transoceanic
12:32AM 47.6904 155.4941 230° Southwest 477 549 40,000  Level FlightAware Transoceanic
12:33AM 47.6100 155.3519 230° Southwest 477 549 40,000  Level FlightAware Transoceanic
12:34AM 47.5294 155.2101 230° Southwest 477 549 40,000  Level FlightAware Transoceanic
12:35AM 47.4486 155.0688 230° Southwest 477 549 40,000  Level FlightAware Transoceanic
12:36AM 47.3676 154.9279 230° Southwest 477 549 40,000  Level FlightAware Transoceanic
12:37AM 47.2865 154.7874 230° Southwest 477 549 40,000  Level FlightAware Transoceanic
12:38AM 47.2052 154.6474 229° Southwest 477 549 40,000  Level FlightAware Transoceanic
12:39AM 47.1238 154.5078 229° Southwest 477 549 40,000  Level FlightAware Transoceanic
12:40AM 47.0421 154.3686 229° Southwest 477 549 40,000  Level FlightAware Transoceanic
12:41AM 46.9603 154.2299 229° Southwest 477 549 40,000  Level FlightAware Transoceanic
12:42AM 46.8783 154.0915 229° Southwest 477 549 40,000  Level FlightAware Transoceanic
12:43AM 46.7962 153.9536 229° Southwest 477 549 40,000  Level FlightAware Transoceanic
12:44AM 46.7139 153.8161 229° Southwest 477 549 40,000  Level FlightAware Transoceanic
12:45AM 46.6314 153.6791 229° Southwest 477 549 40,000  Level FlightAware Transoceanic
12:46AM 46.5488 153.5424 229° Southwest 477 549 40,000  Level FlightAware Transoceanic
12:47AM 46.4660 153.4062 229° Southwest 477 549 40,000  Level FlightAware Transoceanic
12:48AM 46.3831 153.2704 228° Southwest 477 549 40,000  Level FlightAware Transoceanic
12:49AM 46.2999 153.1350 228° Southwest 477 549 40,000  Level FlightAware Transoceanic
12:50AM 46.2166 152.9999 228° Southwest  Level FlightAware Approximate
12:51AM 46.1306 152.8685 228° Southwest  Level Estimated
12:52AM 46.0464 152.7348 228° Southwest  Level FlightAware Approximate
12:53AM 45.9621 152.6015 228° Southwest  Level FlightAware Approximate
12:54AM 45.8777 152.4686 228° Southwest  Level FlightAware Approximate
12:55AM 45.7931 152.3361 228° Southwest  Level FlightAware Approximate
12:56AM 45.7083 152.2040 227° Southwest  Level FlightAware Approximate
12:57AM 45.6234 152.0724 227° Southwest  Level FlightAware Approximate
12:58AM 45.5383 151.9411 227° Southwest  Level FlightAware Approximate
12:59AM 45.4531 151.8102 227° Southwest  Level FlightAware Approximate
01:00AM 45.3678 151.6797 227° Southwest  Level FlightAware Approximate
01:01AM 45.2822 151.5496 227° Southwest  Level FlightAware Approximate
01:02AM 45.1966 151.4199 227° Southwest  Level FlightAware Approximate
01:03AM 45.1108 151.2906 227° Southwest  Level FlightAware Approximate
01:04AM 45.0249 151.1616 227° Southwest  Level FlightAware Approximate
01:05AM 44.9388 151.0331 227° Southwest  Level FlightAware Approximate
01:06AM 44.8525 150.9049 227° Southwest  Level FlightAware Approximate
01:07AM 44.7662 150.7772 226° Southwest  Level FlightAware Approximate
01:08AM 44.6796 150.6498 226° Southwest  Level FlightAware Approximate
01:09AM 44.5930 150.5228 226° Southwest  Level FlightAware Approximate
01:10AM 44.5062 150.3961 226° Southwest  Level FlightAware Approximate
01:11AM 44.4192 150.2699 226° Southwest  Level FlightAware Approximate
01:12AM 44.3322 150.1440 226° Southwest  Level FlightAware Approximate
01:13AM 44.2449 150.0185 226° Southwest  Level FlightAware Approximate
01:14AM 44.1576 149.8934 226° Southwest  Level FlightAware Approximate
01:15AM 44.0701 149.7686 226° Southwest  Level FlightAware Approximate
01:16AM 43.9825 149.6442 226° Southwest  Level FlightAware Approximate
01:17AM 43.8947 149.5202 226° Southwest  Level FlightAware Approximate
01:18AM 43.8068 149.3965 225° Southwest  Level FlightAware Approximate
01:19AM 43.7188 149.2732 225° Southwest  Level FlightAware Approximate
01:20AM 43.6306 149.1503 225° Southwest  Level FlightAware Approximate
01:21AM 43.5424 149.0277 225° Southwest  Level FlightAware Approximate
01:22AM 43.4539 148.9055 225° Southwest  Level FlightAware Approximate
01:22AM 43.4040 148.8350 225° Southwest 420 483 40,000  Level FlightAware
01:23AM 43.3654 148.7836 225° Southwest  Level FlightAware Approximate
01:23AM 43.3270 148.7290 225° Southwest 419 482 40,000  Level FlightAware
01:24AM 43.2420 148.6140 225° Southwest 420 483 40,000  Level FlightAware
01:25AM 43.1730 148.5190 225° Southwest 428 493 40,000  Level FlightAware
01:26AM 43.1020 148.4230 225° Southwest 429 494 40,000  Level FlightAware
01:27AM 43.0240 148.3170 225° Southwest 430 495 40,000  Level FlightAware
01:27AM 42.9610 148.2320 225° Southwest 429 494 40,000  Level FlightAware
01:28AM 42.8830 148.1280 224° Southwest 429 494 40,000  Level FlightAware
01:29AM 42.8190 148.0420 225° Southwest 429 494 40,000  Level FlightAware
01:30AM 42.7340 147.9290 224° Southwest 429 494 40,000  Level FlightAware
01:31AM 42.6700 147.8440 224° Southwest 429 494 40,000  Level FlightAware
01:32AM 42.6000 147.7510 224° Southwest 427 491 40,000  Level FlightAware
01:32AM 42.5480 147.6820 224° Southwest 425 489 40,000  Level FlightAware
01:33AM 42.4770 147.5890 224° Southwest 424 488 40,000  Level FlightAware
01:34AM 42.4150 147.5070 224° Southwest 424 488 40,000  Level FlightAware
01:35AM 42.3540 147.4280 224° Southwest 425 489 40,000  Level FlightAware
01:35AM 42.2940 147.3490 224° Southwest 425 489 40,000  Level FlightAware
01:36AM 42.2240 147.2580 224° Southwest 423 487 40,000  Level FlightAware
01:37AM 42.1470 147.1570 224° Southwest 425 489 40,000  Level FlightAware
01:38AM 42.0760 147.0650 224° Southwest 426 490 40,000  Level FlightAware
01:39AM 42.0250 147.0000 223° Southwest 427 491 40,000  Level FlightAware
01:39AM 41.9540 146.9080 224° Southwest 429 494 40,000  Level FlightAware
01:40AM 41.8770 146.8090 224° Southwest 424 488 40,000  Level FlightAware
01:41AM 41.8050 146.7170 224° Southwest 424 488 40,000  Level FlightAware
01:42AM 41.7270 146.6170 224° Southwest 423 487 40,000  Level FlightAware
01:43AM 41.6500 146.5180 224° Southwest 420 483 40,000  Level FlightAware
01:43AM 41.6220 146.4830 223° Southwest 420 483 40,000  Level FlightAware
01:44AM 41.5440 146.3850 223° Southwest 420 483 40,000  Level FlightAware
01:45AM 41.4730 146.2950 224° Southwest 418 481 40,000  Level FlightAware
01:46AM 41.4180 146.2260 223° Southwest 417 480 40,000  Level FlightAware
01:46AM 41.3820 146.1810 223° Southwest 416 479 40,000  Level FlightAware
01:47AM 41.3400 146.1280 223° Southwest 416 479 40,000  Level FlightAware
01:47AM 41.2910 146.0660 224° Southwest 417 480 40,000  Level FlightAware
01:48AM 41.2220 145.9790 223° Southwest 416 479 40,000  Level FlightAware
01:49AM 41.1450 145.8830 223° Southwest 416 479 40,000  Level FlightAware
01:50AM 41.0740 145.7960 223° Southwest 417 480 40,000  Level FlightAware
01:50AM 41.0260 145.7370 223° Southwest 416 479 40,000 -1,800 Level FlightAware
01:51AM 40.9440 145.6320 224° Southwest 384 442 37,200 -2,220 Descending FlightAware
01:52AM 40.8890 145.5380 232° Southwest 388 447 36,000 -900 Descending FlightAware
01:53AM 40.8440 145.4930 217° Southwest 402 463 36,000  Level FlightAware
01:53AM 40.7860 145.4450 212° Southwest 401 461 36,000  Level FlightAware
01:54AM 40.7070 145.3550 221° Southwest 384 442 36,000  Level FlightAware
01:55AM 40.6520 145.2840 224° Southwest 386 444 36,000  Level FlightAware
01:56AM 40.5580 145.1670 223° Southwest 384 442 36,000  Level FlightAware
01:57AM 40.4710 145.0600 223° Southwest 385 443 36,000  Level FlightAware
01:58AM 40.4170 144.9920 224° Southwest 385 443 36,000  Level FlightAware
01:58AM 40.3790 144.9470 222° Southwest 391 450 36,000  Level FlightAware
01:59AM 40.3070 144.8620 222° Southwest 391 450 36,000  Level FlightAware
02:00AM 40.2390 144.7820 222° Southwest 391 450 36,000  Level FlightAware
02:01AM 40.1700 144.7010 222° Southwest 391 450 36,000  Level FlightAware
02:02AM 40.1150 144.6360 222° Southwest 391 450 36,000  Level FlightAware
02:03AM 40.0740 144.5880 222° Southwest 391 450 36,000  Level FlightAware
02:04AM 40.0190 144.5230 222° Southwest 391 450 36,000  Level FlightAware
02:05AM 39.9510 144.4430 222° Southwest 391 450 36,000  Level FlightAware
02:05AM 39.8960 144.3780 222° Southwest 391 450 36,000  Level FlightAware
02:06AM 39.8550 144.3300 222° Southwest 391 450 36,000  Level FlightAware
02:07AM 39.7860 144.2500 222° Southwest 391 450 36,000  Level FlightAware
02:08AM 39.7300 144.1840 222° Southwest 391 450 36,000  Level FlightAware
02:10AM 39.4800 143.9370 217° Southwest 395 455 36,000  Level FlightAware
02:10AM 39.3920 143.8590 214° Southwest 391 450 36,000  Level FlightAware
02:11AM 39.3020 143.7790 215° Southwest 389 448 36,000  Level FlightAware
02:12AM 39.2270 143.7120 215° Southwest 388 447 36,000  Level FlightAware
02:13AM 39.1290 143.6260 214° Southwest 413 475 36,000  Level FlightAware
02:14AM 39.0460 143.5530 214° Southwest 428 493 36,000  Level FlightAware
02:15AM 38.9560 143.4750 214° Southwest 432 497 36,000  Level FlightAware
02:16AM 38.8710 143.4000 214° Southwest 428 493 36,000  Level FlightAware
02:16AM 38.8290 143.3640 214° Southwest 428 493 36,000  Level FlightAware
02:17AM 38.7380 143.2840 214° Southwest 432 497 36,000  Level FlightAware
02:18AM 38.6810 143.2340 214° Southwest 430 495 36,000  Level FlightAware
02:19AM 38.5820 143.1470 214° Southwest 428 493 36,000  Level FlightAware
02:20AM 38.4930 143.0700 214° Southwest 426 490 36,000  Level FlightAware
02:21AM 38.3950 142.9840 215° Southwest 417 480 36,000  Level FlightAware
02:21AM 38.3220 142.9210 214° Southwest 426 490 36,000  Level FlightAware
02:23AM 38.2190 142.8310 214° Southwest 414 476 36,000  Level FlightAware
02:23AM 38.1690 142.7890 213° Southwest 413 475 36,000  Level FlightAware
02:24AM 38.0960 142.7260 214° Southwest 415 478 36,000  Level FlightAware
02:24AM 38.0320 142.6710 214° Southwest 414 476 36,000  Level FlightAware
02:25AM 37.9850 142.6300 215° Southwest 413 475 36,000  Level FlightAware
02:25AM 37.9360 142.5880 214° Southwest 414 476 36,000  Level FlightAware
02:26AM 37.8930 142.5520 213° Southwest 414 476 36,000  Level FlightAware
02:27AM 37.8210 142.4910 214° Southwest 415 478 36,000  Level FlightAware
02:27AM 37.7550 142.4340 214° Southwest 424 488 36,000  Level FlightAware
02:28AM 37.6820 142.3730 213° Southwest 424 488 36,000  Level FlightAware
02:29AM 37.6170 142.3180 214° Southwest 415 478 36,000  Level FlightAware
02:30AM 37.5390 142.2510 214° Southwest 415 478 36,000  Level FlightAware
02:30AM 37.5000 142.2190 213° Southwest 421 484 36,000  Level FlightAware
02:31AM 37.4420 142.1700 214° Southwest 411 473 36,000 -120 Level FlightAware
02:32AM 37.3420 142.0860 214° Southwest 368 423 35,800 -840 Descending FlightAware
02:32AM 37.2920 142.0440 214° Southwest 377 434 34,600 -1,620 Descending FlightAware
02:33AM 37.2320 141.9930 214° Southwest 391 450 33,800 -1,380 Descending FlightAware
02:33AM 37.1850 141.9540 213° Southwest 406 467 33,000 -1,200 Descending FlightAware
02:34AM 37.1300 141.9090 213° Southwest 393 452 32,500 -840 Descending FlightAware
02:35AM 37.0690 141.8590 213° Southwest 386 444 32,000 -960 Descending FlightAware
02:35AM 37.0320 141.8270 215° Southwest 388 447 31,500 -1,380 Descending FlightAware
02:36AM 36.9630 141.7700 213° Southwest 390 449 30,400 -1,560 Descending FlightAware
02:36AM 36.9190 141.7330 214° Southwest 386 444 29,600 -1,680 Descending FlightAware
02:37AM 36.8670 141.6910 213° Southwest 382 440 28,600 -1,740 Descending FlightAware
02:38AM 36.8020 141.6370 214° Southwest 367 422 27,300 -1,680 Descending FlightAware
02:38AM 36.7570 141.6010 213° Southwest 367 422 26,500 -1,620 Descending FlightAware
02:39AM 36.7080 141.5600 214° Southwest 365 420 25,600 -1,620 Descending FlightAware
02:39AM 36.6730 141.5310 214° Southwest 366 421 24,900 -1,680 Descending FlightAware
02:40AM 36.5740 141.4500 213° Southwest 362 417 23,000 -1,680 Descending FlightAware
02:41AM 36.5260 141.4110 213° Southwest 354 407 22,000 -1,860 Descending FlightAware
02:42AM 36.4690 141.3640 214° Southwest 352 405 20,700 -1,920 Descending FlightAware
02:42AM 36.4280 141.3310 213° Southwest 348 400 19,800 -1,800 Descending FlightAware
02:43AM 36.3870 141.2980 213° Southwest 352 405 18,900 -1,740 Descending FlightAware
02:44AM 36.3080 141.2330 214° Southwest 347 399 17,200 -1,800 Descending FlightAware
02:44AM 36.2540 141.1900 213° Southwest 343 395 16,000 -1,740 Descending FlightAware
02:45AM 36.2140 141.1580 213° Southwest 340 391 15,200 -1,740 Descending FlightAware
02:45AM 36.1760 141.1270 213° Southwest 338 389 14,300 -2,040 Descending FlightAware
02:46AM 36.1080 141.0720 213° Southwest 344 396 12,500 -1,800 Descending FlightAware
02:47AM 36.0130 140.9950 213° Southwest 330 380 10,500 -1,260 Descending FlightAware
02:48AM 35.9410 140.9420 211° Southwest 295 339 9,900 -540 Descending FlightAware
02:49AM 35.9140 140.9220 211° Southwest 282 325 9,800 -300 Descending FlightAware
02:49AM 35.8750 140.8930 211° Southwest 278 320 9,600 -660 Descending FlightAware
02:50AM 35.8380 140.8660 211° Southwest 284 327 9,100 -1,200 Descending FlightAware
02:50AM 35.7980 140.8370 210° Southwest 283 326 8,300 -1,320 Descending FlightAware
02:51AM 35.7600 140.8090 211° Southwest 282 325 7,600 -1,500 Descending FlightAware
02:52AM 35.7220 140.7800 212° Southwest 268 308 6,600 -1,800 Descending FlightAware
02:52AM 35.6900 140.7550 212° Southwest 254 292 5,600 -1,980 Descending FlightAware
02:52AM 35.6760 140.7440 213° Southwest 248 285 5,100 -1,560 Descending FlightAware
02:53AM 35.6340 140.7130 211° Southwest 248 285 4,200 -960 Descending FlightAware
02:54AM 35.5990 140.6860 212° Southwest 227 261 3,900 -420 Descending FlightAware
02:54AM 35.5710 140.6630 214° Southwest 214 246 3,700 -240 Descending FlightAware
02:55AM 35.5490 140.6310 230° Southwest 223 257 3,700  Level FlightAware
02:55AM 35.5350 140.5910 247° West 195 224 3,700  Level FlightAware
02:56AM 35.5420 140.5500 282° West 183 211 3,700  Level FlightAware
02:56AM 35.5560 140.5280 308° West 173 199 3,700  Level FlightAware
02:57AM 35.5760 140.5110 325° Northwest 169 194 3,700 -600 Level FlightAware
02:57AM 35.5980 140.4950 329° Northwest 168 193 3,100 -1,020 Descending FlightAware
02:58AM 35.6240 140.4760 329° Northwest 168 193 2,500 -900 Descending FlightAware
02:59AM 35.6450 140.4620 332° Northwest 168 193 2,100 -960 Descending FlightAware
02:59AM 35.6670 140.4460 329° Northwest 164 189 1,500 -960 Descending FlightAware
03:00AM 35.6830 140.4340 329° Northwest 147 169 1,200 -720 Descending FlightAware
03:00AM 35.7070 140.4170 330° Northwest 146 168 700 -840 Descending FlightAware
03:01AM 35.7260 140.4040 331° Northwest 143 165 200 -960 Descending FlightAware
03:01AM 35.7410 140.3920 327° Northwest 141 162 -480 Descending FlightAware
03:02AM 35.7530 140.3830 329° Northwest 141 162  Level FlightAware